createdAt,value
2022-08-28T00:00:49.813Z,22.49
2022-08-28T00:01:50.127Z,22.52
2022-08-28T00:02:50.590Z,22.52
2022-08-28T00:03:50.684Z,22.54
2022-08-28T00:04:51.001Z,22.52
2022-08-28T00:05:51.328Z,22.54
2022-08-28T00:06:51.650Z,22.50
2022-08-28T00:07:51.855Z,22.52
2022-08-28T00:08:52.166Z,22.49
2022-08-28T00:09:52.502Z,22.49
2022-08-28T00:10:52.821Z,22.47
2022-08-28T00:11:53.154Z,22.46
2022-08-28T00:12:53.481Z,22.49
2022-08-28T00:13:53.612Z,22.44
2022-08-28T00:14:53.983Z,22.49
2022-08-28T00:15:54.275Z,22.46
2022-08-28T00:16:54.462Z,22.41
2022-08-28T00:17:54.887Z,22.39
2022-08-28T00:18:55.054Z,22.39
2022-08-28T00:19:55.407Z,22.44
2022-08-28T00:20:55.740Z,22.44
2022-08-28T00:21:56.112Z,22.49
2022-08-28T00:22:56.429Z,22.47
2022-08-28T00:23:56.647Z,22.47
2022-08-28T00:24:56.873Z,22.47
2022-08-28T00:25:57.185Z,22.52
2022-08-28T00:26:57.537Z,22.52
2022-08-28T00:27:57.886Z,22.47
2022-08-28T00:28:58.208Z,22.47
2022-08-28T00:29:58.457Z,22.50
2022-08-28T00:30:58.898Z,22.46
2022-08-28T00:31:59.180Z,22.47
2022-08-28T00:32:59.410Z,22.43
2022-08-28T00:33:59.660Z,22.37
2022-08-28T00:34:59.976Z,22.37
2022-08-28T00:36:00.248Z,22.34
2022-08-28T00:37:00.507Z,22.29
2022-08-28T00:38:00.712Z,22.31
2022-08-28T00:39:01.020Z,22.31
2022-08-28T00:40:01.287Z,22.32
2022-08-28T00:41:01.669Z,22.32
2022-08-28T00:42:01.917Z,22.29
2022-08-28T00:43:02.292Z,22.29
2022-08-28T00:44:02.643Z,22.28
2022-08-28T00:45:02.792Z,22.22
2022-08-28T00:46:03.219Z,22.23
2022-08-28T00:47:03.528Z,22.23
2022-08-28T00:48:03.855Z,22.20
2022-08-28T00:49:04.219Z,22.22
2022-08-28T00:50:04.555Z,22.27
2022-08-28T00:51:04.784Z,22.22
2022-08-28T00:52:05.128Z,22.20
2022-08-28T00:53:05.464Z,22.23
2022-08-28T00:54:07.850Z,22.23
2022-08-28T00:55:06.084Z,22.22
2022-08-28T00:56:09.508Z,22.17
2022-08-28T00:57:07.717Z,22.19
2022-08-28T00:58:06.980Z,22.20
2022-08-28T00:59:07.180Z,22.22
2022-08-28T01:00:07.448Z,22.20
2022-08-28T01:01:07.759Z,22.14
2022-08-28T01:02:08.246Z,22.14
2022-08-28T01:03:08.340Z,22.20
2022-08-28T01:04:08.583Z,22.17
2022-08-28T01:05:08.920Z,22.17
2022-08-28T01:06:09.216Z,22.13
2022-08-28T01:07:09.920Z,22.16
2022-08-28T01:08:09.649Z,22.13
2022-08-28T01:09:09.940Z,22.20
2022-08-28T01:10:10.363Z,22.17
2022-08-28T01:11:10.677Z,22.14
2022-08-28T01:12:10.957Z,22.12
2022-08-28T01:13:11.304Z,22.13
2022-08-28T01:14:11.585Z,22.10
2022-08-28T01:15:11.968Z,22.12
2022-08-28T01:16:12.309Z,22.13
2022-08-28T01:17:12.563Z,22.12
2022-08-28T01:18:13.037Z,22.12
2022-08-28T01:19:13.144Z,22.10
2022-08-28T01:20:13.457Z,22.13
2022-08-28T01:21:20.174Z,22.13
2022-08-28T01:22:15.091Z,22.12
2022-08-28T01:23:14.356Z,22.10
2022-08-28T01:24:14.752Z,22.02
2022-08-28T01:25:15.052Z,21.99
2022-08-28T01:26:15.319Z,22.06
2022-08-28T01:27:15.591Z,22.09
2022-08-28T01:28:16.088Z,22.12
2022-08-28T01:29:16.649Z,22.12
2022-08-28T01:30:16.552Z,22.12
2022-08-28T01:31:16.905Z,22.14
2022-08-28T01:32:17.138Z,22.09
2022-08-28T01:33:17.466Z,22.09
2022-08-28T01:34:17.797Z,22.06
2022-08-28T01:35:18.117Z,21.97
2022-08-28T01:36:18.412Z,21.95
2022-08-28T01:37:18.682Z,21.92
2022-08-28T01:38:21.909Z,21.90
2022-08-28T01:39:20.252Z,21.90
2022-08-28T01:40:19.598Z,21.88
2022-08-28T01:41:19.825Z,21.94
2022-08-28T01:42:20.156Z,21.88
2022-08-28T01:43:20.402Z,21.82
2022-08-28T01:44:20.711Z,21.82
2022-08-28T01:45:21.051Z,21.82
2022-08-28T01:46:21.361Z,21.82
2022-08-28T01:47:21.632Z,21.82
2022-08-28T01:48:21.947Z,21.79
2022-08-28T01:49:22.203Z,21.79
2022-08-28T01:50:22.571Z,21.81
2022-08-28T01:51:24.627Z,21.81
2022-08-28T01:52:26.248Z,21.85
2022-08-28T01:53:24.867Z,21.82
2022-08-28T01:54:23.526Z,21.83
2022-08-28T01:55:23.769Z,21.83
2022-08-28T01:56:24.031Z,21.85
2022-08-28T01:57:24.373Z,21.81
2022-08-28T01:58:24.690Z,21.75
2022-08-28T01:59:24.888Z,21.72
2022-08-28T02:00:25.210Z,21.76
2022-08-28T02:01:25.593Z,21.74
2022-08-28T02:02:25.844Z,21.78
2022-08-28T02:03:26.176Z,21.79
2022-08-28T02:04:32.404Z,21.79
2022-08-28T02:05:27.728Z,21.76
2022-08-28T02:06:26.996Z,21.72
2022-08-28T02:07:27.328Z,21.71
2022-08-28T02:08:27.574Z,21.72
2022-08-28T02:09:27.875Z,21.69
2022-08-28T02:10:28.183Z,21.72
2022-08-28T02:11:28.514Z,21.67
2022-08-28T02:12:28.822Z,21.66
2022-08-28T02:13:29.138Z,21.64
2022-08-28T02:14:29.454Z,21.61
2022-08-28T02:15:29.837Z,21.61
2022-08-28T02:16:30.013Z,21.59
2022-08-28T02:17:30.269Z,21.60
2022-08-28T02:18:30.561Z,21.53
2022-08-28T02:19:30.865Z,21.53
2022-08-28T02:20:31.166Z,21.56
2022-08-28T02:21:31.464Z,21.57
2022-08-28T02:22:31.768Z,21.59
2022-08-28T02:23:32.033Z,21.61
2022-08-28T02:24:32.337Z,21.69
2022-08-28T02:25:32.699Z,21.72
2022-08-28T02:26:32.960Z,21.72
2022-08-28T02:27:33.322Z,21.69
2022-08-28T02:28:33.565Z,21.69
2022-08-28T02:29:33.867Z,21.67
2022-08-28T02:30:34.244Z,21.61
2022-08-28T02:31:34.417Z,21.57
2022-08-28T02:32:34.732Z,21.53
2022-08-28T02:33:34.894Z,21.48
2022-08-28T02:34:35.141Z,21.45
2022-08-28T02:35:35.513Z,21.44
2022-08-28T02:36:35.726Z,21.41
2022-08-28T02:37:36.027Z,21.36
2022-08-28T02:38:36.281Z,21.38
2022-08-28T02:39:36.567Z,21.36
2022-08-28T02:40:37.006Z,21.36
2022-08-28T02:41:37.188Z,21.35
2022-08-28T02:42:37.397Z,21.34
2022-08-28T02:43:37.763Z,21.30
2022-08-28T02:44:37.970Z,21.30
2022-08-28T02:45:38.234Z,21.27
2022-08-28T02:46:38.604Z,21.29
2022-08-28T02:47:38.797Z,21.24
2022-08-28T02:48:39.107Z,21.26
2022-08-28T02:49:39.378Z,21.24
2022-08-28T02:50:39.706Z,21.23
2022-08-28T02:51:39.979Z,21.23
2022-08-28T02:52:40.521Z,21.24
2022-08-28T02:53:40.473Z,21.27
2022-08-28T02:54:40.719Z,21.27
2022-08-28T02:55:41.038Z,21.34
2022-08-28T02:56:41.264Z,21.30
2022-08-28T02:57:41.674Z,21.30
2022-08-28T02:58:41.893Z,21.36
2022-08-28T02:59:42.179Z,21.36
2022-08-28T03:00:42.432Z,21.34
2022-08-28T03:01:42.784Z,21.32
2022-08-28T03:02:43.022Z,21.29
2022-08-28T03:03:43.271Z,21.34
2022-08-28T03:04:43.573Z,21.34
2022-08-28T03:05:43.831Z,21.36
2022-08-28T03:06:44.108Z,21.41
2022-08-28T03:07:44.336Z,21.38
2022-08-28T03:08:44.581Z,21.36
2022-08-28T03:09:44.924Z,21.36
2022-08-28T03:10:45.142Z,21.36
2022-08-28T03:11:45.426Z,21.38
2022-08-28T03:12:45.661Z,21.36
2022-08-28T03:13:45.971Z,21.36
2022-08-28T03:14:46.308Z,21.39
2022-08-28T03:15:46.704Z,21.42
2022-08-28T03:16:48.083Z,21.46
2022-08-28T03:17:47.940Z,21.44
2022-08-28T03:18:47.579Z,21.41
2022-08-28T03:19:47.908Z,21.44
2022-08-28T03:20:48.255Z,21.39
2022-08-28T03:21:48.592Z,21.34
2022-08-28T03:22:48.872Z,21.34
2022-08-28T03:23:49.180Z,21.29
2022-08-28T03:24:49.416Z,21.32
2022-08-28T03:25:49.713Z,21.30
2022-08-28T03:26:49.971Z,21.30
2022-08-28T03:27:50.288Z,21.29
2022-08-28T03:28:50.642Z,21.24
2022-08-28T03:29:50.887Z,21.21
2022-08-28T03:30:51.194Z,21.14
2022-08-28T03:31:51.453Z,21.13
2022-08-28T03:32:51.693Z,21.13
2022-08-28T03:33:51.994Z,21.11
2022-08-28T03:34:52.326Z,21.13
2022-08-28T03:35:52.583Z,21.09
2022-08-28T03:36:52.799Z,21.06
2022-08-28T03:37:53.052Z,21.04
2022-08-28T03:38:53.408Z,21.04
2022-08-28T03:39:53.619Z,21.01
2022-08-28T03:40:53.853Z,21.02
2022-08-28T03:41:54.156Z,20.95
2022-08-28T03:42:54.419Z,20.91
2022-08-28T03:43:55.103Z,20.93
2022-08-28T03:44:54.992Z,20.96
2022-08-28T03:45:55.383Z,20.95
2022-08-28T03:46:55.562Z,21.01
2022-08-28T03:47:56.011Z,20.99
2022-08-28T03:48:56.242Z,20.98
2022-08-28T03:49:56.580Z,21.02
2022-08-28T03:50:56.775Z,21.01
2022-08-28T03:51:57.095Z,20.98
2022-08-28T03:52:57.782Z,21.02
2022-08-28T03:53:57.547Z,21.02
2022-08-28T03:54:57.897Z,21.01
2022-08-28T03:55:58.224Z,21.01
2022-08-28T03:56:58.536Z,20.96
2022-08-28T03:57:58.823Z,20.95
2022-08-28T03:58:59.121Z,20.95
2022-08-28T03:59:59.394Z,20.93
2022-08-28T04:00:59.717Z,20.91
2022-08-28T04:01:59.971Z,20.87
2022-08-28T04:03:00.361Z,20.83
2022-08-28T04:04:00.628Z,20.81
2022-08-28T04:05:01.016Z,20.79
2022-08-28T04:06:01.263Z,20.79
2022-08-28T04:07:01.597Z,20.76
2022-08-28T04:08:01.878Z,20.72
2022-08-28T04:09:02.151Z,20.69
2022-08-28T04:10:02.411Z,20.68
2022-08-28T04:11:02.596Z,20.69
2022-08-28T04:12:02.975Z,20.72
2022-08-28T04:13:03.272Z,20.71
2022-08-28T04:14:03.582Z,20.68
2022-08-28T04:15:03.944Z,20.65
2022-08-28T04:16:06.385Z,20.62
2022-08-28T04:17:04.466Z,20.62
2022-08-28T04:18:04.769Z,20.69
2022-08-28T04:19:05.004Z,20.68
2022-08-28T04:20:05.390Z,20.66
2022-08-28T04:21:05.668Z,20.59
2022-08-28T04:22:06.080Z,20.65
2022-08-28T04:23:06.295Z,20.65
2022-08-28T04:24:09.470Z,20.66
2022-08-28T04:25:06.731Z,20.65
2022-08-28T04:26:07.019Z,20.62
2022-08-28T04:27:07.357Z,20.59
2022-08-28T04:28:07.600Z,20.59
2022-08-28T04:29:07.867Z,20.56
2022-08-28T04:30:08.118Z,20.54
2022-08-28T04:31:08.394Z,20.49
2022-08-28T04:32:08.799Z,20.50
2022-08-28T04:33:09.022Z,20.53
2022-08-28T04:34:09.283Z,20.53
2022-08-28T04:35:09.588Z,20.54
2022-08-28T04:36:09.818Z,20.50
2022-08-28T04:37:10.064Z,20.51
2022-08-28T04:38:10.448Z,20.53
2022-08-28T04:39:10.687Z,20.53
2022-08-28T04:40:11.054Z,20.56
2022-08-28T04:41:11.179Z,20.51
2022-08-28T04:42:11.469Z,20.50
2022-08-28T04:43:11.704Z,20.47
2022-08-28T04:44:11.949Z,20.50
2022-08-28T04:45:12.237Z,20.47
2022-08-28T04:46:12.508Z,20.47
2022-08-28T04:47:12.790Z,20.46
2022-08-28T04:48:13.841Z,20.46
2022-08-28T04:49:13.251Z,20.46
2022-08-28T04:50:13.535Z,20.49
2022-08-28T04:51:13.852Z,20.46
2022-08-28T04:52:14.063Z,20.46
2022-08-28T04:53:14.369Z,20.47
2022-08-28T04:54:14.537Z,20.50
2022-08-28T04:55:14.769Z,20.46
2022-08-28T04:56:15.180Z,20.46
2022-08-28T04:57:15.396Z,20.49
2022-08-28T04:58:15.764Z,20.50
2022-08-28T04:59:15.849Z,20.51
2022-08-28T05:00:16.085Z,20.53
2022-08-28T05:01:16.381Z,20.56
2022-08-28T05:02:16.655Z,20.56
2022-08-28T05:03:16.870Z,20.59
2022-08-28T05:04:17.185Z,20.56
2022-08-28T05:05:17.403Z,20.53
2022-08-28T05:06:17.689Z,20.50
2022-08-28T05:07:17.939Z,20.53
2022-08-28T05:08:18.162Z,20.56
2022-08-28T05:09:18.419Z,20.58
2022-08-28T05:10:18.804Z,20.62
2022-08-28T05:11:33.676Z,20.62
2022-08-28T05:12:20.356Z,20.65
2022-08-28T05:13:19.648Z,20.62
2022-08-28T05:14:19.925Z,20.66
2022-08-28T05:15:20.204Z,20.71
2022-08-28T05:16:20.465Z,20.69
2022-08-28T05:17:20.742Z,20.69
2022-08-28T05:18:20.975Z,20.71
2022-08-28T05:19:21.317Z,20.68
2022-08-28T05:20:21.568Z,20.66
2022-08-28T05:21:21.820Z,20.68
2022-08-28T05:22:22.051Z,20.66
2022-08-28T05:23:24.197Z,20.71
2022-08-28T05:24:22.602Z,20.74
2022-08-28T05:25:22.871Z,20.71
2022-08-28T05:26:23.115Z,20.69
2022-08-28T05:27:23.373Z,20.71
2022-08-28T05:28:23.628Z,20.74
2022-08-28T05:29:23.895Z,20.76
2022-08-28T05:30:24.195Z,20.77
2022-08-28T05:31:24.595Z,20.77
2022-08-28T05:32:24.810Z,20.74
2022-08-28T05:33:25.045Z,20.74
2022-08-28T05:34:25.404Z,20.68
2022-08-28T05:35:25.636Z,20.68
2022-08-28T05:36:32.468Z,20.65
2022-08-28T05:37:27.196Z,20.72
2022-08-28T05:38:26.496Z,20.68
2022-08-28T05:39:26.683Z,20.72
2022-08-28T05:40:27.107Z,20.72
2022-08-28T05:41:27.360Z,20.72
2022-08-28T05:42:30.636Z,20.72
2022-08-28T05:43:27.867Z,20.69
2022-08-28T05:44:28.116Z,20.72
2022-08-28T05:45:28.327Z,20.76
2022-08-28T05:46:28.681Z,20.77
2022-08-28T05:47:29.059Z,20.79
2022-08-28T05:48:30.366Z,20.79
2022-08-28T05:49:29.532Z,20.77
2022-08-28T05:50:29.853Z,20.79
2022-08-28T05:51:30.264Z,20.83
2022-08-28T05:52:30.515Z,20.83
2022-08-28T05:53:30.783Z,20.84
2022-08-28T05:54:31.051Z,20.84
2022-08-28T05:55:31.267Z,20.81
2022-08-28T05:56:31.507Z,20.83
2022-08-28T05:57:31.798Z,20.84
2022-08-28T05:58:32.037Z,20.87
2022-08-28T05:59:32.301Z,20.87
2022-08-28T06:00:32.603Z,20.87
2022-08-28T06:01:32.861Z,20.83
2022-08-28T06:02:33.099Z,20.80
2022-08-28T06:03:33.387Z,20.80
2022-08-28T06:04:33.714Z,20.84
2022-08-28T06:05:33.886Z,20.83
2022-08-28T06:06:34.134Z,20.84
2022-08-28T06:07:34.351Z,20.86
2022-08-28T06:08:34.765Z,20.90
2022-08-28T06:09:35.021Z,20.93
2022-08-28T06:10:35.256Z,20.95
2022-08-28T06:11:35.564Z,20.96
2022-08-28T06:12:35.864Z,20.99
2022-08-28T06:13:36.083Z,21.01
2022-08-28T06:14:36.406Z,21.04
2022-08-28T06:15:36.637Z,21.06
2022-08-28T06:16:36.921Z,21.02
2022-08-28T06:17:37.145Z,21.09
2022-08-28T06:18:37.370Z,21.11
2022-08-28T06:19:41.230Z,21.19
2022-08-28T06:20:37.938Z,21.20
2022-08-28T06:21:38.617Z,21.20
2022-08-28T06:22:38.441Z,21.24
2022-08-28T06:23:38.673Z,21.24
2022-08-28T06:24:39.018Z,21.27
2022-08-28T06:25:39.208Z,21.32
2022-08-28T06:26:39.511Z,21.38
2022-08-28T06:27:39.763Z,21.35
2022-08-28T06:28:41.019Z,21.35
2022-08-28T06:29:40.292Z,21.39
2022-08-28T06:30:45.937Z,21.42
2022-08-28T06:31:41.957Z,21.44
2022-08-28T06:32:41.195Z,21.48
2022-08-28T06:33:41.513Z,21.54
2022-08-28T06:34:41.732Z,21.61
2022-08-28T06:35:42.001Z,21.61
2022-08-28T06:36:43.257Z,21.69
2022-08-28T06:37:42.513Z,21.75
2022-08-28T06:38:42.829Z,21.78
2022-08-28T06:39:43.038Z,21.79
2022-08-28T06:40:43.301Z,21.79
2022-08-28T06:41:43.554Z,21.76
2022-08-28T06:42:43.836Z,21.78
2022-08-28T06:43:44.056Z,21.78
2022-08-28T06:44:44.291Z,21.81
2022-08-28T06:45:44.570Z,21.78
2022-08-28T06:46:44.852Z,21.76
2022-08-28T06:47:45.141Z,21.71
2022-08-28T06:48:45.381Z,21.66
2022-08-28T06:49:45.610Z,21.63
2022-08-28T06:50:45.845Z,21.64
2022-08-28T06:51:46.146Z,21.56
2022-08-28T06:52:46.388Z,21.51
2022-08-28T06:53:46.667Z,21.54
2022-08-28T06:54:55.553Z,21.57
2022-08-28T06:55:48.174Z,21.61
2022-08-28T06:56:47.512Z,21.60
2022-08-28T06:57:47.787Z,21.57
2022-08-28T06:58:50.246Z,21.60
2022-08-28T06:59:48.491Z,21.64
2022-08-28T07:00:52.921Z,21.64
2022-08-28T07:01:50.061Z,21.61
2022-08-28T07:02:49.180Z,21.61
2022-08-28T07:03:49.416Z,21.64
2022-08-28T07:04:49.860Z,21.69
2022-08-28T07:05:49.992Z,21.72
2022-08-28T07:06:54.260Z,21.76
2022-08-28T07:07:50.516Z,21.79
2022-08-28T07:08:50.796Z,21.79
2022-08-28T07:09:51.111Z,21.81
2022-08-28T07:10:51.365Z,21.79
2022-08-28T07:11:51.627Z,21.81
2022-08-28T07:12:51.918Z,21.82
2022-08-28T07:13:52.174Z,21.79
2022-08-28T07:14:52.490Z,21.83
2022-08-28T07:15:52.809Z,21.88
2022-08-28T07:16:53.095Z,21.88
2022-08-28T07:17:53.345Z,21.94
2022-08-28T07:18:53.635Z,21.94
2022-08-28T07:19:53.881Z,21.95
2022-08-28T07:20:54.166Z,22.01
2022-08-28T07:21:54.580Z,22.06
2022-08-28T07:22:59.530Z,22.10
2022-08-28T07:23:55.927Z,22.16
2022-08-28T07:24:55.214Z,22.19
2022-08-28T07:25:55.457Z,22.27
2022-08-28T07:26:55.712Z,22.27
2022-08-28T07:27:55.981Z,22.29
2022-08-28T07:29:09.681Z,22.41
2022-08-28T07:29:57.485Z,22.46
2022-08-28T07:30:56.786Z,22.44
2022-08-28T07:31:57.103Z,22.41
2022-08-28T07:32:57.321Z,22.41
2022-08-28T07:33:58.558Z,22.44
2022-08-28T07:34:57.825Z,22.44
2022-08-28T07:35:58.083Z,22.47
2022-08-28T07:36:58.350Z,22.57
2022-08-28T07:37:58.647Z,22.57
2022-08-28T07:38:58.918Z,22.54
2022-08-28T07:39:59.205Z,22.60
2022-08-28T07:40:59.403Z,22.60
2022-08-28T07:41:59.661Z,22.59
2022-08-28T07:42:59.972Z,22.56
2022-08-28T07:44:00.168Z,22.53
2022-08-28T07:45:00.420Z,22.54
2022-08-28T07:46:00.804Z,22.60
2022-08-28T07:47:00.927Z,22.60
2022-08-28T07:48:01.170Z,22.64
2022-08-28T07:49:01.422Z,22.67
2022-08-28T07:50:01.698Z,22.78
2022-08-28T07:51:02.112Z,22.89
2022-08-28T07:52:02.340Z,22.92
2022-08-28T07:53:02.553Z,22.92
2022-08-28T07:54:02.887Z,22.96
2022-08-28T07:55:03.146Z,23.04
2022-08-28T07:56:03.847Z,23.07
2022-08-28T07:57:03.705Z,23.17
2022-08-28T07:58:03.936Z,23.26
2022-08-28T07:59:04.226Z,23.35
2022-08-28T08:00:04.446Z,23.39
2022-08-28T08:01:04.725Z,23.42
2022-08-28T08:02:04.982Z,23.43
2022-08-28T08:03:05.320Z,23.46
2022-08-28T08:04:05.653Z,23.49
2022-08-28T08:05:05.887Z,23.53
2022-08-28T08:06:06.124Z,23.61
2022-08-28T08:07:06.400Z,23.67
2022-08-28T08:08:06.656Z,23.71
2022-08-28T08:09:06.946Z,23.70
2022-08-28T08:10:07.219Z,23.79
2022-08-28T08:11:07.479Z,23.87
2022-08-28T08:12:07.753Z,23.98
2022-08-28T08:13:08.031Z,24.00
2022-08-28T08:14:08.290Z,24.13
2022-08-28T08:15:08.671Z,24.17
2022-08-28T08:16:08.923Z,24.20
2022-08-28T08:17:09.202Z,24.23
2022-08-28T08:18:10.321Z,24.27
2022-08-28T08:19:09.791Z,24.23
2022-08-28T08:20:10.068Z,24.22
2022-08-28T08:21:10.286Z,24.23
2022-08-28T08:22:10.512Z,24.34
2022-08-28T08:23:10.970Z,24.54
2022-08-28T08:24:11.161Z,24.73
2022-08-28T08:25:12.463Z,25.01
2022-08-28T08:26:11.770Z,25.27
2022-08-28T08:27:12.054Z,25.50
2022-08-28T08:28:12.442Z,25.46
2022-08-28T08:29:12.588Z,25.42
2022-08-28T08:30:12.867Z,25.30
2022-08-28T08:31:13.189Z,25.17
2022-08-28T08:32:13.513Z,25.20
2022-08-28T08:33:13.714Z,25.27
2022-08-28T08:34:13.948Z,25.43
2022-08-28T08:35:14.199Z,25.68
2022-08-28T08:36:14.518Z,25.98
2022-08-28T08:37:14.716Z,26.12
2022-08-28T08:38:15.138Z,26.36
2022-08-28T08:39:15.236Z,26.64
2022-08-28T08:40:15.630Z,26.86
2022-08-28T08:41:15.930Z,26.69
2022-08-28T08:42:16.109Z,26.62
2022-08-28T08:43:16.358Z,26.86
2022-08-28T08:44:16.736Z,26.99
2022-08-28T08:45:16.919Z,27.21
2022-08-28T08:46:17.250Z,27.57
2022-08-28T08:47:17.449Z,27.71
2022-08-28T08:48:17.751Z,27.92
2022-08-28T08:49:18.009Z,28.06
2022-08-28T08:50:18.389Z,28.22
2022-08-28T08:51:18.589Z,28.38
2022-08-28T08:52:18.882Z,28.40
2022-08-28T08:53:19.145Z,28.51
2022-08-28T08:54:19.415Z,28.73
2022-08-28T08:55:19.688Z,28.93
2022-08-28T08:56:19.987Z,29.00
2022-08-28T08:57:20.317Z,29.03
2022-08-28T08:58:20.553Z,28.69
2022-08-28T08:59:20.798Z,28.33
2022-08-28T09:00:21.035Z,28.23
2022-08-28T09:01:21.477Z,27.85
2022-08-28T09:02:21.599Z,27.71
2022-08-28T09:03:21.901Z,28.14
2022-08-28T09:04:22.105Z,28.41
2022-08-28T09:05:22.410Z,28.75
2022-08-28T09:06:22.662Z,28.90
2022-08-28T09:07:22.906Z,29.06
2022-08-28T09:08:23.145Z,29.33
2022-08-28T09:09:23.461Z,29.04
2022-08-28T09:10:23.665Z,28.66
2022-08-28T09:11:23.990Z,28.95
2022-08-28T09:12:24.193Z,28.84
2022-08-28T09:13:24.448Z,28.53
2022-08-28T09:14:27.007Z,28.82
2022-08-28T09:15:26.002Z,29.08
2022-08-28T09:16:25.465Z,29.35
2022-08-28T09:17:25.524Z,29.35
2022-08-28T09:18:25.769Z,29.60
2022-08-28T09:19:26.019Z,29.26
2022-08-28T09:20:32.840Z,28.72
2022-08-28T09:21:29.414Z,28.38
2022-08-28T09:22:26.865Z,28.28
2022-08-28T09:23:27.089Z,28.21
2022-08-28T09:24:27.475Z,28.07
2022-08-28T09:25:27.693Z,27.94
2022-08-28T09:26:28.044Z,27.91
2022-08-28T09:27:28.277Z,28.32
2022-08-28T09:28:28.501Z,28.16
2022-08-28T09:29:28.779Z,27.92
2022-08-28T09:30:29.025Z,27.86
2022-08-28T09:31:29.295Z,27.59
2022-08-28T09:32:29.588Z,27.26
2022-08-28T09:33:29.917Z,26.80
2022-08-28T09:34:30.238Z,26.43
2022-08-28T09:35:30.460Z,26.25
2022-08-28T09:36:30.709Z,26.08
2022-08-28T09:37:31.071Z,25.99
2022-08-28T09:38:31.318Z,25.86
2022-08-28T09:39:31.637Z,25.86
2022-08-28T09:40:31.935Z,25.80
2022-08-28T09:41:32.156Z,25.91
2022-08-28T09:42:32.411Z,26.08
2022-08-28T09:43:32.649Z,26.73
2022-08-28T09:44:32.938Z,27.13
2022-08-28T09:45:33.256Z,27.10
2022-08-28T09:46:33.530Z,27.95
2022-08-28T09:47:33.768Z,28.35
2022-08-28T09:48:34.001Z,28.35
2022-08-28T09:49:34.255Z,28.63
2022-08-28T09:50:34.520Z,29.16
2022-08-28T09:51:34.829Z,29.68
2022-08-28T09:52:35.045Z,30.12
2022-08-28T09:53:35.291Z,30.40
2022-08-28T09:54:35.570Z,30.80
2022-08-28T09:55:35.827Z,31.13
2022-08-28T09:56:36.069Z,31.04
2022-08-28T09:57:36.363Z,30.46
2022-08-28T09:58:36.674Z,30.67
2022-08-28T09:59:36.941Z,30.89
2022-08-28T10:00:37.160Z,30.74
2022-08-28T10:01:37.447Z,31.20
2022-08-28T10:02:37.795Z,31.62
2022-08-28T10:03:38.058Z,31.93
2022-08-28T10:04:38.450Z,32.17
2022-08-28T10:05:38.656Z,32.14
2022-08-28T10:06:38.837Z,32.24
2022-08-28T10:07:39.221Z,32.18
2022-08-28T10:08:39.442Z,32.06
2022-08-28T10:09:39.696Z,31.99
2022-08-28T10:10:40.981Z,31.87
2022-08-28T10:11:43.493Z,31.40
2022-08-28T10:12:40.578Z,30.80
2022-08-28T10:13:40.855Z,30.29
2022-08-28T10:14:41.080Z,30.91
2022-08-28T10:15:43.518Z,31.27
2022-08-28T10:16:41.647Z,31.57
2022-08-28T10:17:41.853Z,30.98
2022-08-28T10:18:42.086Z,30.46
2022-08-28T10:19:42.366Z,30.18
2022-08-28T10:20:42.657Z,30.64
2022-08-28T10:21:42.959Z,31.24
2022-08-28T10:22:43.239Z,31.64
2022-08-28T10:23:43.477Z,32.00
2022-08-28T10:24:43.762Z,32.43
2022-08-28T10:25:43.979Z,32.54
2022-08-28T10:26:44.236Z,32.80
2022-08-28T10:27:44.537Z,32.55
2022-08-28T10:28:44.792Z,31.88
2022-08-28T10:29:45.034Z,31.55
2022-08-28T10:30:45.418Z,31.92
2022-08-28T10:31:45.599Z,32.06
2022-08-28T10:32:46.026Z,32.44
2022-08-28T10:33:46.297Z,32.64
2022-08-28T10:34:46.483Z,32.80
2022-08-28T10:35:46.792Z,31.99
2022-08-28T10:36:47.019Z,32.37
2022-08-28T10:37:47.323Z,32.79
2022-08-28T10:38:53.121Z,32.86
2022-08-28T10:39:48.864Z,32.39
2022-08-28T10:40:48.130Z,32.47
2022-08-28T10:41:48.382Z,32.35
2022-08-28T10:42:48.677Z,32.36
2022-08-28T10:43:48.926Z,32.35
2022-08-28T10:44:49.163Z,31.82
2022-08-28T10:45:49.556Z,31.45
2022-08-28T10:46:49.793Z,31.12
2022-08-28T10:47:50.027Z,30.89
2022-08-28T10:48:50.230Z,30.80
2022-08-28T10:49:50.474Z,31.30
2022-08-28T10:50:50.708Z,31.77
2022-08-28T10:51:51.270Z,32.35
2022-08-28T10:52:51.246Z,32.89
2022-08-28T10:53:51.464Z,33.19
2022-08-28T10:54:51.732Z,32.84
2022-08-28T10:55:51.981Z,31.93
2022-08-28T10:56:55.111Z,31.91
2022-08-28T10:57:52.539Z,32.27
2022-08-28T10:58:52.811Z,32.13
2022-08-28T10:59:53.070Z,32.59
2022-08-28T11:00:53.329Z,32.67
2022-08-28T11:01:53.711Z,32.14
2022-08-28T11:02:53.925Z,32.44
2022-08-28T11:03:54.176Z,32.42
2022-08-28T11:04:58.329Z,32.55
2022-08-28T11:05:54.731Z,32.96
2022-08-28T11:06:54.993Z,33.51
2022-08-28T11:07:55.243Z,34.01
2022-08-28T11:08:55.619Z,34.22
2022-08-28T11:09:55.968Z,34.32
2022-08-28T11:10:56.168Z,33.64
2022-08-28T11:12:01.097Z,32.69
2022-08-28T11:12:57.776Z,31.98
2022-08-28T11:13:57.065Z,30.90
2022-08-28T11:14:57.299Z,30.56
2022-08-28T11:15:57.575Z,31.39
2022-08-28T11:16:57.890Z,32.21
2022-08-28T11:17:58.101Z,32.36
2022-08-28T11:18:58.336Z,32.73
2022-08-28T11:19:58.644Z,32.89
2022-08-28T11:20:58.862Z,32.99
2022-08-28T11:21:59.119Z,33.15
2022-08-28T11:22:59.393Z,33.08
2022-08-28T11:23:59.682Z,33.20
2022-08-28T11:25:04.289Z,33.27
2022-08-28T11:26:01.261Z,32.62
2022-08-28T11:27:00.547Z,33.20
2022-08-28T11:28:00.791Z,33.53
2022-08-28T11:29:01.130Z,33.36
2022-08-28T11:30:01.375Z,32.85
2022-08-28T11:31:01.712Z,32.77
2022-08-28T11:32:01.937Z,32.35
2022-08-28T11:33:02.183Z,31.85
2022-08-28T11:34:02.435Z,31.50
2022-08-28T11:35:02.711Z,31.31
2022-08-28T11:36:03.101Z,31.23
2022-08-28T11:37:03.335Z,31.17
2022-08-28T11:38:03.615Z,30.99
2022-08-28T11:39:03.842Z,31.26
2022-08-28T11:40:04.098Z,31.67
2022-08-28T11:41:04.317Z,32.15
2022-08-28T11:42:04.651Z,32.32
2022-08-28T11:43:04.804Z,32.37
2022-08-28T11:44:05.139Z,32.70
2022-08-28T11:45:05.467Z,33.22
2022-08-28T11:46:05.684Z,33.36
2022-08-28T11:47:05.913Z,33.64
2022-08-28T11:48:06.176Z,33.71
2022-08-28T11:49:06.711Z,33.86
2022-08-28T11:50:06.929Z,33.89
2022-08-28T11:51:07.152Z,33.74
2022-08-28T11:52:07.408Z,33.94
2022-08-28T11:53:07.715Z,34.05
2022-08-28T11:54:07.978Z,33.34
2022-08-28T11:55:08.235Z,32.47
2022-08-28T11:56:08.494Z,31.68
2022-08-28T11:57:08.780Z,31.15
2022-08-28T11:58:44.509Z,30.67
2022-08-28T11:59:44.805Z,30.40
2022-08-28T12:00:45.034Z,30.15
2022-08-28T12:01:45.305Z,30.50
2022-08-28T12:02:45.650Z,30.94
2022-08-28T12:03:45.892Z,31.38
2022-08-28T12:04:46.265Z,31.72
2022-08-28T12:05:46.397Z,32.22
2022-08-28T12:06:46.657Z,32.59
2022-08-28T12:07:46.906Z,32.86
2022-08-28T12:08:47.179Z,33.29
2022-08-28T12:09:47.436Z,33.34
2022-08-28T12:10:47.698Z,33.37
2022-08-28T12:11:47.980Z,33.41
2022-08-28T12:12:48.226Z,33.58
2022-08-28T12:13:48.657Z,33.73
2022-08-28T12:14:48.878Z,33.97
2022-08-28T12:15:49.339Z,33.78
2022-08-28T12:16:49.585Z,33.30
2022-08-28T12:17:49.667Z,32.74
2022-08-28T12:18:50.028Z,32.33
2022-08-28T12:19:55.804Z,31.85
2022-08-28T12:20:51.595Z,31.82
2022-08-28T12:21:50.882Z,31.64
2022-08-28T12:22:51.132Z,31.55
2022-08-28T12:23:51.446Z,31.33
2022-08-28T12:24:51.754Z,31.11
2022-08-28T12:25:51.992Z,30.78
2022-08-28T12:26:52.230Z,30.65
2022-08-28T12:27:52.482Z,30.31
2022-08-28T12:28:52.715Z,30.18
2022-08-28T12:29:53.027Z,30.18
2022-08-28T12:30:53.331Z,30.02
2022-08-28T12:31:53.533Z,29.92
2022-08-28T12:32:53.787Z,29.81
2022-08-28T12:33:54.046Z,29.74
2022-08-28T12:34:54.316Z,29.72
2022-08-28T12:35:54.621Z,29.65
2022-08-28T12:36:54.804Z,29.50
2022-08-28T12:37:55.206Z,29.53
2022-08-28T12:38:55.427Z,29.47
2022-08-28T12:39:55.726Z,29.49
2022-08-28T12:40:55.942Z,29.47
2022-08-28T12:41:56.175Z,29.53
2022-08-28T12:42:56.420Z,29.62
2022-08-28T12:43:56.672Z,29.68
2022-08-28T12:44:56.990Z,29.74
2022-08-28T12:45:57.400Z,29.68
2022-08-28T12:46:57.662Z,29.62
2022-08-28T12:47:57.855Z,29.68
2022-08-28T12:48:58.200Z,29.75
2022-08-28T12:49:58.448Z,29.81
2022-08-28T12:50:58.712Z,29.77
2022-08-28T12:51:58.968Z,29.68
2022-08-28T12:52:59.206Z,29.56
2022-08-28T12:53:59.580Z,29.47
2022-08-28T12:54:59.760Z,29.37
2022-08-28T12:56:00.036Z,29.23
2022-08-28T12:57:00.255Z,29.15